sensor_id;sensor_type;location;lat;lon;timestamp;pressure;altitude;pressure_sealevel;temperature;humidity
73748;BME280;62056;52.130;5.428;2023-07-31T00:01:36;101156.75;;;16.04;84.46
73748;BME280;62056;52.130;5.428;2023-07-31T00:04:03;101155.34;;;16.06;84.89
73748;BME280;62056;52.130;5.428;2023-07-31T00:06:30;101151.06;;;16.05;84.38
73748;BME280;62056;52.130;5.428;2023-07-31T00:08:56;101149.19;;;16.06;83.77
73748;BME280;62056;52.130;5.428;2023-07-31T00:11:23;101137.66;;;16.05;84.78
73748;BME280;62056;52.130;5.428;2023-07-31T00:13:50;101134.97;;;16.05;84.69
73748;BME280;62056;52.130;5.428;2023-07-31T00:16:16;101123.78;;;16.03;84.88
73748;BME280;62056;52.130;5.428;2023-07-31T00:18:43;101119.19;;;16.04;85.16
73748;BME280;62056;52.130;5.428;2023-07-31T00:21:10;101114.00;;;16.07;85.95
73748;BME280;62056;52.130;5.428;2023-07-31T00:23:37;101109.88;;;16.10;85.41
73748;BME280;62056;52.130;5.428;2023-07-31T00:26:03;101110.84;;;16.14;85.29
73748;BME280;62056;52.130;5.428;2023-07-31T00:28:30;101114.63;;;16.13;84.91
73748;BME280;62056;52.130;5.428;2023-07-31T00:30:57;101116.66;;;16.16;86.31
73748;BME280;62056;52.130;5.428;2023-07-31T00:33:24;101113.19;;;16.15;86.53
73748;BME280;62056;52.130;5.428;2023-07-31T00:35:50;101113.19;;;16.15;85.43
73748;BME280;62056;52.130;5.428;2023-07-31T00:38:17;101108.94;;;16.14;85.86
73748;BME280;62056;52.130;5.428;2023-07-31T00:40:43;101110.84;;;16.14;86.24
73748;BME280;62056;52.130;5.428;2023-07-31T00:43:10;101104.84;;;16.17;86.03
73748;BME280;62056;52.130;5.428;2023-07-31T00:45:37;101103.09;;;16.21;85.98
73748;BME280;62056;52.130;5.428;2023-07-31T00:48:04;101101.69;;;16.24;85.83
73748;BME280;62056;52.130;5.428;2023-07-31T00:50:33;101094.88;;;16.26;86.48
73748;BME280;62056;52.130;5.428;2023-07-31T00:53:00;101092.66;;;16.28;87.02
73748;BME280;62056;52.130;5.428;2023-07-31T00:55:27;101095.97;;;16.34;87.02
73748;BME280;62056;52.130;5.428;2023-07-31T00:57:54;101088.09;;;16.37;86.72
73748;BME280;62056;52.130;5.428;2023-07-31T01:00:22;101094.38;;;16.42;86.89
73748;BME280;62056;52.130;5.428;2023-07-31T01:02:50;101089.00;;;16.42;86.87
73748;BME280;62056;52.130;5.428;2023-07-31T01:05:25;101088.38;;;16.45;87.36
73748;BME280;62056;52.130;5.428;2023-07-31T01:10:45;101089.00;;;16.50;88.20
73748;BME280;62056;52.130;5.428;2023-07-31T01:13:12;101082.50;;;16.51;87.92
73748;BME280;62056;52.130;5.428;2023-07-31T01:15:39;101083.44;;;16.55;88.67
73748;BME280;62056;52.130;5.428;2023-07-31T01:18:05;101095.78;;;16.56;88.06
73748;BME280;62056;52.130;5.428;2023-07-31T01:20:33;101104.16;;;16.55;88.03
73748;BME280;62056;52.130;5.428;2023-07-31T01:26:04;101095.44;;;16.58;91.17
73748;BME280;62056;52.130;5.428;2023-07-31T01:28:58;101095.16;;;16.51;90.25
73748;BME280;62056;52.130;5.428;2023-07-31T01:31:29;101089.63;;;16.47;90.18
73748;BME280;62056;52.130;5.428;2023-07-31T01:34:00;101096.75;;;16.43;89.05
73748;BME280;62056;52.130;5.428;2023-07-31T01:36:28;101091.69;;;16.42;89.11
73748;BME280;62056;52.130;5.428;2023-07-31T01:39:00;101091.25;;;16.39;89.56
73748;BME280;62056;52.130;5.428;2023-07-31T01:41:28;101087.44;;;16.41;89.30
73748;BME280;62056;52.130;5.428;2023-07-31T01:43:55;101094.38;;;16.42;90.30
73748;BME280;62056;52.130;5.428;2023-07-31T01:46:22;101084.09;;;16.44;89.62
73748;BME280;62056;52.130;5.428;2023-07-31T01:48:48;101093.75;;;16.45;90.21
73748;BME280;62056;52.130;5.428;2023-07-31T01:51:15;101086.47;;;16.45;89.55
73748;BME280;62056;52.130;5.428;2023-07-31T01:53:41;101072.75;;;16.47;90.03
73748;BME280;62056;52.130;5.428;2023-07-31T01:56:08;101076.69;;;16.49;90.20
73748;BME280;62056;52.130;5.428;2023-07-31T01:58:35;101071.78;;;16.51;90.53
73748;BME280;62056;52.130;5.428;2023-07-31T02:01:01;101079.34;;;16.49;90.73
73748;BME280;62056;52.130;5.428;2023-07-31T02:03:28;101070.69;;;16.52;90.66
73748;BME280;62056;52.130;5.428;2023-07-31T02:05:55;101078.88;;;16.56;90.54
73748;BME280;62056;52.130;5.428;2023-07-31T02:08:23;101070.50;;;16.57;90.74
73748;BME280;62056;52.130;5.428;2023-07-31T02:10:49;101064.66;;;16.55;90.87
73748;BME280;62056;52.130;5.428;2023-07-31T02:13:16;101064.97;;;16.54;90.85
73748;BME280;62056;52.130;5.428;2023-07-31T02:15:43;101063.56;;;16.56;91.78
73748;BME280;62056;52.130;5.428;2023-07-31T02:18:09;101051.25;;;16.55;91.24
73748;BME280;62056;52.130;5.428;2023-07-31T02:20:36;101046.66;;;16.56;90.79
73748;BME280;62056;52.130;5.428;2023-07-31T02:23:03;101032.75;;;16.54;91.14
73748;BME280;62056;52.130;5.428;2023-07-31T02:25:30;101033.22;;;16.56;91.48
73748;BME280;62056;52.130;5.428;2023-07-31T02:27:56;101035.44;;;16.54;91.26
73748;BME280;62056;52.130;5.428;2023-07-31T02:30:23;101041.63;;;16.54;91.07
73748;BME280;62056;52.130;5.428;2023-07-31T02:32:50;101043.50;;;16.54;91.15
73748;BME280;62056;52.130;5.428;2023-07-31T02:35:17;101039.25;;;16.53;91.15
73748;BME280;62056;52.130;5.428;2023-07-31T02:37:45;101028.50;;;16.53;91.29
73748;BME280;62056;52.130;5.428;2023-07-31T02:40:12;101034.66;;;16.53;91.20
73748;BME280;62056;52.130;5.428;2023-07-31T02:42:39;101032.75;;;16.54;91.14
73748;BME280;62056;52.130;5.428;2023-07-31T02:45:07;101031.66;;;16.55;91.48
73748;BME280;62056;52.130;5.428;2023-07-31T02:47:34;101029.75;;;16.55;91.48
73748;BME280;62056;52.130;5.428;2023-07-31T02:50:02;101039.72;;;16.55;91.90
73748;BME280;62056;52.130;5.428;2023-07-31T02:52:29;101032.44;;;16.55;91.41
73748;BME280;62056;52.130;5.428;2023-07-31T02:54:56;101025.97;;;16.56;91.23
73748;BME280;62056;52.130;5.428;2023-07-31T02:57:23;101020.28;;;16.58;92.13
73748;BME280;62056;52.130;5.428;2023-07-31T02:59:49;101025.97;;;16.56;91.26
73748;BME280;62056;52.130;5.428;2023-07-31T03:02:16;101010.66;;;16.57;91.40
73748;BME280;62056;52.130;5.428;2023-07-31T03:04:43;101009.53;;;16.58;91.24
73748;BME280;62056;52.130;5.428;2023-07-31T03:07:10;101019.19;;;16.59;91.53
73748;BME280;62056;52.130;5.428;2023-07-31T03:09:36;101018.41;;;16.58;91.85
73748;BME280;62056;52.130;5.428;2023-07-31T03:12:03;101021.09;;;16.58;91.21
73748;BME280;62056;52.130;5.428;2023-07-31T03:14:30;101018.06;;;16.60;91.25
73748;BME280;62056;52.130;5.428;2023-07-31T03:16:57;101019.19;;;16.59;91.25
73748;BME280;62056;52.130;5.428;2023-07-31T03:19:24;101021.09;;;16.58;91.71
73748;BME280;62056;52.130;5.428;2023-07-31T03:21:50;101013.66;;;16.55;91.50
73748;BME280;62056;52.130;5.428;2023-07-31T03:24:17;101022.50;;;16.56;91.79
73748;BME280;62056;52.130;5.428;2023-07-31T03:26:44;101013.34;;;16.57;91.37
73748;BME280;62056;52.130;5.428;2023-07-31T03:29:10;101003.38;;;16.57;92.19
73748;BME280;62056;52.130;5.428;2023-07-31T03:31:37;101012.56;;;16.56;91.88
73748;BME280;62056;52.130;5.428;2023-07-31T03:34:04;101007.19;;;16.56;91.72
73748;BME280;62056;52.130;5.428;2023-07-31T03:36:31;101012.56;;;16.56;91.84
73748;BME280;62056;52.130;5.428;2023-07-31T03:38:58;101002.59;;;16.57;92.15
73748;BME280;62056;52.130;5.428;2023-07-31T03:41:25;101008.28;;;16.55;91.83
73748;BME280;62056;52.130;5.428;2023-07-31T03:43:52;101012.09;;;16.54;91.43
73748;BME280;62056;52.130;5.428;2023-07-31T03:46:18;101008.28;;;16.55;91.56
73748;BME280;62056;52.130;5.428;2023-07-31T03:48:45;101009.06;;;16.56;91.84
73748;BME280;62056;52.130;5.428;2023-07-31T03:51:12;101005.59;;;16.55;91.92
73748;BME280;62056;52.130;5.428;2023-07-31T03:53:39;101008.28;;;16.55;91.73
73748;BME280;62056;52.130;5.428;2023-07-31T03:56:05;100999.78;;;16.53;91.59
73748;BME280;62056;52.130;5.428;2023-07-31T03:58:32;101010.03;;;16.51;91.54
73748;BME280;62056;52.130;5.428;2023-07-31T04:00:59;101007.03;;;16.53;91.61
73748;BME280;62056;52.130;5.428;2023-07-31T04:03:26;101003.56;;;16.52;91.48
73748;BME280;62056;52.130;5.428;2023-07-31T04:05:54;101000.91;;;16.52;92.00
73748;BME280;62056;52.130;5.428;2023-07-31T04:08:23;100998.53;;;16.51;91.35
73748;BME280;62056;52.130;5.428;2023-07-31T04:10:50;100991.56;;;16.50;91.99
73748;BME280;62056;52.130;5.428;2023-07-31T04:13:17;100991.09;;;16.48;91.88
73748;BME280;62056;52.130;5.428;2023-07-31T04:15:48;100984.16;;;16.47;91.64
73748;BME280;62056;52.130;5.428;2023-07-31T04:18:16;100971.38;;;16.44;91.67
73748;BME280;62056;52.130;5.428;2023-07-31T04:20:46;100980.25;;;16.44;91.89
73748;BME280;62056;52.130;5.428;2023-07-31T04:23:12;100977.09;;;16.42;91.63
73748;BME280;62056;52.130;5.428;2023-07-31T04:25:39;100962.09;;;16.41;92.04
73748;BME280;62056;52.130;5.428;2023-07-31T04:28:05;100958.63;;;16.41;92.44
73748;BME280;62056;52.130;5.428;2023-07-31T04:30:32;100967.78;;;16.39;92.10
73748;BME280;62056;52.130;5.428;2023-07-31T04:32:59;100966.97;;;16.39;92.14
73748;BME280;62056;52.130;5.428;2023-07-31T04:35:27;100968.09;;;16.38;92.37
73748;BME280;62056;52.130;5.428;2023-07-31T04:37:54;100971.56;;;16.38;92.52
73748;BME280;62056;52.130;5.428;2023-07-31T04:40:21;100968.88;;;16.38;92.65
73748;BME280;62056;52.130;5.428;2023-07-31T04:42:48;100977.72;;;16.39;92.67
73748;BME280;62056;52.130;5.428;2023-07-31T04:45:14;100984.22;;;16.38;92.78
73748;BME280;62056;52.130;5.428;2023-07-31T04:47:41;100968.41;;;16.36;92.58
73748;BME280;62056;52.130;5.428;2023-07-31T04:50:08;100975.69;;;16.36;92.62
73748;BME280;62056;52.130;5.428;2023-07-31T04:52:35;100972.69;;;16.37;92.55
73748;BME280;62056;52.130;5.428;2023-07-31T04:55:02;100973.47;;;16.38;92.04
73748;BME280;62056;52.130;5.428;2023-07-31T04:57:30;100966.19;;;16.38;92.97
73748;BME280;62056;52.130;5.428;2023-07-31T04:59:56;100963.53;;;16.38;92.93
73748;BME280;62056;52.130;5.428;2023-07-31T05:02:23;100956.59;;;16.37;92.85
73748;BME280;62056;52.130;5.428;2023-07-31T05:04:51;100949.16;;;16.34;93.05
73748;BME280;62056;52.130;5.428;2023-07-31T05:07:18;100944.47;;;16.31;92.88
73748;BME280;62056;52.130;5.428;2023-07-31T05:09:44;100951.38;;;16.32;93.09
73748;BME280;62056;52.130;5.428;2023-07-31T05:12:11;100941.78;;;16.31;92.94
73748;BME280;62056;52.130;5.428;2023-07-31T05:14:38;100941.31;;;16.29;92.93
73748;BME280;62056;52.130;5.428;2023-07-31T05:17:05;100942.88;;;16.30;93.48
73748;BME280;62056;52.130;5.428;2023-07-31T05:19:33;100943.66;;;16.31;93.41
73748;BME280;62056;52.130;5.428;2023-07-31T05:22:00;100940.50;;;16.29;93.40
73748;BME280;62056;52.130;5.428;2023-07-31T05:24:27;100946.22;;;16.27;93.50
73748;BME280;62056;52.130;5.428;2023-07-31T05:26:54;100942.72;;;16.27;93.31
73748;BME280;62056;52.130;5.428;2023-07-31T05:29:20;100936.88;;;16.25;93.47
73748;BME280;62056;52.130;5.428;2023-07-31T05:31:47;100932.34;;;16.25;94.10
73748;BME280;62056;52.130;5.428;2023-07-31T05:34:14;100937.53;;;16.22;93.46
73748;BME280;62056;52.130;5.428;2023-07-31T05:36:40;100928.72;;;16.21;93.88
73748;BME280;62056;52.130;5.428;2023-07-31T05:39:07;100917.06;;;16.17;94.24
73748;BME280;62056;52.130;5.428;2023-07-31T05:41:35;100933.47;;;16.15;94.15
73748;BME280;62056;52.130;5.428;2023-07-31T05:44:02;100926.03;;;16.12;94.14
73748;BME280;62056;52.130;5.428;2023-07-31T05:46:29;100921.78;;;16.11;94.79
73748;BME280;62056;52.130;5.428;2023-07-31T05:48:58;100919.13;;;16.11;94.51
73748;BME280;62056;52.130;5.428;2023-07-31T05:51:27;100908.38;;;16.11;94.41
73748;BME280;62056;52.130;5.428;2023-07-31T05:53:54;100911.53;;;16.13;95.36
73748;BME280;62056;52.130;5.428;2023-07-31T05:56:21;100894.19;;;16.11;94.66
73748;BME280;62056;52.130;5.428;2023-07-31T05:58:48;100905.38;;;16.13;94.87
73748;BME280;62056;52.130;5.428;2023-07-31T06:01:16;100896.06;;;16.10;94.92
73748;BME280;62056;52.130;5.428;2023-07-31T06:03:43;100903.03;;;16.11;95.01
73748;BME280;62056;52.130;5.428;2023-07-31T06:06:10;100894.19;;;16.11;95.35
73748;BME280;62056;52.130;5.428;2023-07-31T06:08:37;100891.97;;;16.13;94.80
73748;BME280;62056;52.130;5.428;2023-07-31T06:11:04;100891.97;;;16.13;94.95
73748;BME280;62056;52.130;5.428;2023-07-31T06:13:31;100882.34;;;16.12;95.32
73748;BME280;62056;52.130;5.428;2023-07-31T06:15:58;100890.38;;;16.12;95.62
73748;BME280;62056;52.130;5.428;2023-07-31T06:18:26;100895.75;;;16.12;95.65
73748;BME280;62056;52.130;5.428;2023-07-31T06:20:53;100883.13;;;16.12;95.55
73748;BME280;62056;52.130;5.428;2023-07-31T06:23:20;100887.41;;;16.13;95.76
73748;BME280;62056;52.130;5.428;2023-07-31T06:25:47;100884.72;;;16.13;95.83
73748;BME280;62056;52.130;5.428;2023-07-31T06:28:14;100883.59;;;16.14;96.13
73748;BME280;62056;52.130;5.428;2023-07-31T06:30:40;100876.66;;;16.13;95.86
73748;BME280;62056;52.130;5.428;2023-07-31T06:33:07;100879.03;;;16.15;96.32
73748;BME280;62056;52.130;5.428;2023-07-31T06:35:34;100873.78;;;16.18;95.91
73748;BME280;62056;52.130;5.428;2023-07-31T06:38:01;100870.94;;;16.24;96.31
73748;BME280;62056;52.130;5.428;2023-07-31T06:40:29;100870.44;;;16.30;96.17
73748;BME280;62056;52.130;5.428;2023-07-31T06:42:56;100859.63;;;16.39;96.64
73748;BME280;62056;52.130;5.428;2023-07-31T06:45:23;100847.28;;;16.47;96.80
73748;BME280;62056;52.130;5.428;2023-07-31T06:47:50;100856.06;;;16.56;97.06
73748;BME280;62056;52.130;5.428;2023-07-31T06:50:17;100851.75;;;16.64;97.35
73748;BME280;62056;52.130;5.428;2023-07-31T06:52:44;100848.22;;;16.72;97.81
73748;BME280;62056;52.130;5.428;2023-07-31T06:55:19;100845.00;;;16.78;97.69
73748;BME280;62056;52.130;5.428;2023-07-31T06:57:50;100841.50;;;16.87;97.98
73748;BME280;62056;52.130;5.428;2023-07-31T07:00:18;100840.66;;;16.95;98.16
73748;BME280;62056;52.130;5.428;2023-07-31T07:02:46;100849.75;;;17.03;98.60
73748;BME280;62056;52.130;5.428;2023-07-31T07:05:15;100840.69;;;17.07;98.47
73748;BME280;62056;52.130;5.428;2023-07-31T07:07:43;100847.44;;;17.13;98.18
73748;BME280;62056;52.130;5.428;2023-07-31T07:10:11;100833.16;;;17.22;98.30
73748;BME280;62056;52.130;5.428;2023-07-31T07:12:38;100835.16;;;17.25;97.43
73748;BME280;62056;52.130;5.428;2023-07-31T07:15:05;100835.41;;;17.32;98.08
73748;BME280;62056;52.130;5.428;2023-07-31T07:17:33;100837.78;;;17.33;97.82
73748;BME280;62056;52.130;5.428;2023-07-31T07:20:00;100838.03;;;17.40;98.01
73748;BME280;62056;52.130;5.428;2023-07-31T07:22:27;100832.78;;;17.44;96.84
73748;BME280;62056;52.130;5.428;2023-07-31T07:24:54;100837.28;;;17.52;97.75
73748;BME280;62056;52.130;5.428;2023-07-31T07:27:21;100832.44;;;17.58;98.02
73748;BME280;62056;52.130;5.428;2023-07-31T07:29:50;100838.28;;;17.60;97.80
73748;BME280;62056;52.130;5.428;2023-07-31T07:32:20;100836.84;;;17.63;97.91
73748;BME280;62056;52.130;5.428;2023-07-31T07:34:48;100836.94;;;17.66;97.54
73748;BME280;62056;52.130;5.428;2023-07-31T07:37:15;100836.28;;;17.69;97.24
73748;BME280;62056;52.130;5.428;2023-07-31T07:39:42;100841.00;;;17.72;97.15
73748;BME280;62056;52.130;5.428;2023-07-31T07:42:09;100838.66;;;17.71;97.30
73748;BME280;62056;52.130;5.428;2023-07-31T07:44:36;100834.16;;;17.75;96.74
73748;BME280;62056;52.130;5.428;2023-07-31T07:47:03;100823.97;;;17.80;96.83
73748;BME280;62056;52.130;5.428;2023-07-31T07:49:33;100832.03;;;17.80;96.85
73748;BME280;62056;52.130;5.428;2023-07-31T07:52:01;100827.13;;;17.83;95.94
73748;BME280;62056;52.130;5.428;2023-07-31T07:54:28;100833.41;;;17.87;96.94
73748;BME280;62056;52.130;5.428;2023-07-31T07:56:55;100830.72;;;17.87;96.69
73748;BME280;62056;52.130;5.428;2023-07-31T07:59:22;100828.16;;;17.90;96.51
73748;BME280;62056;52.130;5.428;2023-07-31T08:01:49;100817.84;;;17.92;96.89
73748;BME280;62056;52.130;5.428;2023-07-31T08:04:16;100821.75;;;17.95;96.44
73748;BME280;62056;52.130;5.428;2023-07-31T08:06:43;100818.50;;;18.02;96.82
73748;BME280;62056;52.130;5.428;2023-07-31T08:09:09;100824.69;;;18.02;96.90
73748;BME280;62056;52.130;5.428;2023-07-31T08:11:36;100812.91;;;18.07;96.70
73748;BME280;62056;52.130;5.428;2023-07-31T08:14:03;100815.69;;;18.10;96.75
73748;BME280;62056;52.130;5.428;2023-07-31T08:16:30;100812.34;;;18.13;96.33
73748;BME280;62056;52.130;5.428;2023-07-31T08:18:56;100814.00;;;18.18;95.24
73748;BME280;62056;52.130;5.428;2023-07-31T08:21:23;100803.38;;;18.22;96.66
73748;BME280;62056;52.130;5.428;2023-07-31T08:23:50;100802.16;;;18.19;94.73
73748;BME280;62056;52.130;5.428;2023-07-31T08:26:19;100799.00;;;18.29;96.08
73748;BME280;62056;52.130;5.428;2023-07-31T08:28:47;100802.91;;;18.32;96.36
73748;BME280;62056;52.130;5.428;2023-07-31T08:31:14;100795.72;;;18.36;96.33
73748;BME280;62056;52.130;5.428;2023-07-31T08:33:41;100793.66;;;18.45;96.08
73748;BME280;62056;52.130;5.428;2023-07-31T08:36:07;100799.06;;;18.45;95.61
73748;BME280;62056;52.130;5.428;2023-07-31T08:38:36;100792.66;;;18.50;96.18
73748;BME280;62056;52.130;5.428;2023-07-31T08:41:03;100791.41;;;18.47;93.90
73748;BME280;62056;52.130;5.428;2023-07-31T08:43:32;100799.34;;;18.56;95.91
73748;BME280;62056;52.130;5.428;2023-07-31T08:45:59;100797.22;;;18.61;95.95
73748;BME280;62056;52.130;5.428;2023-07-31T08:48:28;100793.06;;;18.64;95.37
73748;BME280;62056;52.130;5.428;2023-07-31T08:50:55;100790.13;;;18.69;95.43
73748;BME280;62056;52.130;5.428;2023-07-31T08:53:24;100802.91;;;18.72;95.17
73748;BME280;62056;52.130;5.428;2023-07-31T08:55:52;100796.84;;;18.75;94.35
73748;BME280;62056;52.130;5.428;2023-07-31T08:58:23;100784.75;;;18.82;95.37
73748;BME280;62056;52.130;5.428;2023-07-31T09:00:51;100781.78;;;18.87;95.37
73748;BME280;62056;52.130;5.428;2023-07-31T09:03:22;100790.91;;;18.82;93.47
73748;BME280;62056;52.130;5.428;2023-07-31T09:05:49;100788.38;;;18.89;95.22
73748;BME280;62056;52.130;5.428;2023-07-31T09:08:21;100782.00;;;18.94;95.05
73748;BME280;62056;52.130;5.428;2023-07-31T09:10:49;100792.06;;;18.97;95.01
73748;BME280;62056;52.130;5.428;2023-07-31T09:13:19;100798.69;;;18.99;95.22
73748;BME280;62056;52.130;5.428;2023-07-31T09:15:46;100795.31;;;19.03;95.09
73748;BME280;62056;52.130;5.428;2023-07-31T09:18:13;100796.97;;;19.07;95.13
73748;BME280;62056;52.130;5.428;2023-07-31T09:20:45;100793.22;;;19.12;95.21
73748;BME280;62056;52.130;5.428;2023-07-31T09:23:14;100779.66;;;19.08;94.60
73748;BME280;62056;52.130;5.428;2023-07-31T09:25:44;100785.41;;;19.07;94.20
73748;BME280;62056;52.130;5.428;2023-07-31T09:28:11;100785.91;;;19.12;94.06
73748;BME280;62056;52.130;5.428;2023-07-31T09:30:50;100782.34;;;19.08;94.06
73748;BME280;62056;52.130;5.428;2023-07-31T09:33:19;100782.34;;;19.08;94.04
73748;BME280;62056;52.130;5.428;2023-07-31T09:35:50;100777.50;;;19.14;94.36
73748;BME280;62056;52.130;5.428;2023-07-31T09:38:17;100784.47;;;19.15;94.04
73748;BME280;62056;52.130;5.428;2023-07-31T09:40:47;100775.34;;;19.19;93.78
73748;BME280;62056;52.130;5.428;2023-07-31T09:43:20;100777.78;;;19.25;93.77
73748;BME280;62056;52.130;5.428;2023-07-31T09:45:54;100781.59;;;19.24;92.32
73748;BME280;62056;52.130;5.428;2023-07-31T09:48:23;100770.56;;;19.29;93.73
73748;BME280;62056;52.130;5.428;2023-07-31T09:50:52;100773.06;;;19.37;94.21
73748;BME280;62056;52.130;5.428;2023-07-31T09:53:19;100775.97;;;19.45;94.31
73748;BME280;62056;52.130;5.428;2023-07-31T09:55:54;100768.56;;;19.41;94.23
73748;BME280;62056;52.130;5.428;2023-07-31T09:58:22;100771.00;;;19.47;93.98
73748;BME280;62056;52.130;5.428;2023-07-31T10:00:49;100778.75;;;19.48;93.40
73748;BME280;62056;52.130;5.428;2023-07-31T10:03:16;100776.06;;;19.48;92.93
73748;BME280;62056;52.130;5.428;2023-07-31T10:05:46;100769.28;;;19.54;93.25
73748;BME280;62056;52.130;5.428;2023-07-31T10:08:18;100757.25;;;19.52;92.73
73748;BME280;62056;52.130;5.428;2023-07-31T10:10:49;100769.34;;;19.58;92.73
73748;BME280;62056;52.130;5.428;2023-07-31T10:13:16;100770.66;;;19.64;93.44
73748;BME280;62056;52.130;5.428;2023-07-31T10:15:44;100764.22;;;19.69;92.69
73748;BME280;62056;52.130;5.428;2023-07-31T10:18:12;100775.25;;;19.64;92.52
73748;BME280;62056;52.130;5.428;2023-07-31T10:20:40;100772.66;;;19.67;92.94
73748;BME280;62056;52.130;5.428;2023-07-31T10:23:08;100773.34;;;19.64;92.24
73748;BME280;62056;52.130;5.428;2023-07-31T10:25:35;100777.03;;;19.72;92.83
73748;BME280;62056;52.130;5.428;2023-07-31T10:28:03;100773.56;;;19.71;91.95
73748;BME280;62056;52.130;5.428;2023-07-31T10:30:32;100771.16;;;19.70;91.53
73748;BME280;62056;52.130;5.428;2023-07-31T10:33:01;100765.34;;;19.68;92.21
73748;BME280;62056;52.130;5.428;2023-07-31T10:35:29;100761.00;;;19.63;91.56
73748;BME280;62056;52.130;5.428;2023-07-31T10:37:55;100769.09;;;19.63;91.35
73748;BME280;62056;52.130;5.428;2023-07-31T10:40:26;100765.19;;;19.60;92.47
73748;BME280;62056;52.130;5.428;2023-07-31T10:42:55;100771.88;;;19.67;92.64
73748;BME280;62056;52.130;5.428;2023-07-31T10:48:06;100765.78;;;19.70;92.42
73748;BME280;62056;52.130;5.428;2023-07-31T10:50:40;100768.94;;;19.72;91.98
73748;BME280;62056;52.130;5.428;2023-07-31T10:53:23;100768.16;;;19.71;92.49
73748;BME280;62056;52.130;5.428;2023-07-31T10:55:50;100772.06;;;19.74;92.43
73748;BME280;62056;52.130;5.428;2023-07-31T10:58:20;100774.16;;;19.80;92.12
73748;BME280;62056;52.130;5.428;2023-07-31T11:00:47;100767.63;;;19.81;92.24
73748;BME280;62056;52.130;5.428;2023-07-31T11:03:17;100765.81;;;19.86;91.99
73748;BME280;62056;52.130;5.428;2023-07-31T11:05:52;100766.56;;;19.86;92.07
73748;BME280;62056;52.130;5.428;2023-07-31T11:08:32;100776.66;;;19.89;91.67
73748;BME280;62056;52.130;5.428;2023-07-31T11:13:30;100775.34;;;19.99;92.03
73748;BME280;62056;52.130;5.428;2023-07-31T11:15:57;100770.38;;;20.01;91.89
73748;BME280;62056;52.130;5.428;2023-07-31T11:18:26;100775.91;;;20.08;91.80
73748;BME280;62056;52.130;5.428;2023-07-31T11:20:53;100777.50;;;20.09;91.16
73748;BME280;62056;52.130;5.428;2023-07-31T11:23:22;100769.31;;;20.06;91.10
73748;BME280;62056;52.130;5.428;2023-07-31T11:25:50;100768.97;;;20.07;91.29
73748;BME280;62056;52.130;5.428;2023-07-31T11:28:18;100768.63;;;20.09;91.35
73748;BME280;62056;52.130;5.428;2023-07-31T11:30:45;100757.81;;;20.09;91.04
73748;BME280;62056;52.130;5.428;2023-07-31T11:33:13;100767.81;;;20.08;91.22
73748;BME280;62056;52.130;5.428;2023-07-31T11:38:12;100764.69;;;20.06;91.30
73748;BME280;62056;52.130;5.428;2023-07-31T11:40:43;100768.63;;;20.09;91.21
73748;BME280;62056;52.130;5.428;2023-07-31T11:43:10;100755.13;;;20.09;91.21
73748;BME280;62056;52.130;5.428;2023-07-31T11:45:40;100761.13;;;20.02;91.13
73748;BME280;62056;52.130;5.428;2023-07-31T11:48:07;100759.22;;;20.02;91.20
73748;BME280;62056;52.130;5.428;2023-07-31T11:50:35;100758.03;;;20.00;90.99
73748;BME280;62056;52.130;5.428;2023-07-31T11:53:07;100758.63;;;19.93;90.64
73748;BME280;62056;52.130;5.428;2023-07-31T11:55:35;100751.34;;;19.94;91.07
73748;BME280;62056;52.130;5.428;2023-07-31T11:58:02;100750.63;;;19.97;91.04
73748;BME280;62056;52.130;5.428;2023-07-31T12:00:30;100743.94;;;19.91;90.94
73748;BME280;62056;52.130;5.428;2023-07-31T12:02:57;100752.31;;;19.86;90.85
73748;BME280;62056;52.130;5.428;2023-07-31T12:05:24;100751.16;;;19.87;90.29
73748;BME280;62056;52.130;5.428;2023-07-31T12:07:53;100750.09;;;19.91;90.66
73748;BME280;62056;52.130;5.428;2023-07-31T12:10:25;100753.53;;;19.88;90.22
73748;BME280;62056;52.130;5.428;2023-07-31T12:13:11;100761.31;;;19.93;91.04
73748;BME280;62056;52.130;5.428;2023-07-31T12:15:43;100758.72;;;19.97;91.17
73748;BME280;62056;52.130;5.428;2023-07-31T12:18:12;100753.66;;;19.95;91.13
73748;BME280;62056;52.130;5.428;2023-07-31T12:20:44;100755.38;;;20.04;91.23
73748;BME280;62056;52.130;5.428;2023-07-31T12:23:20;100749.66;;;20.05;91.17
73748;BME280;62056;52.130;5.428;2023-07-31T12:26:01;100752.78;;;20.07;91.06
73748;BME280;62056;52.130;5.428;2023-07-31T12:28:28;100748.50;;;20.06;90.74
73748;BME280;62056;52.130;5.428;2023-07-31T12:31:00;100744.25;;;20.05;89.92
73748;BME280;62056;52.130;5.428;2023-07-31T12:33:31;100740.13;;;20.11;90.33
73748;BME280;62056;52.130;5.428;2023-07-31T12:36:01;100720.19;;;20.16;90.57
73748;BME280;62056;52.130;5.428;2023-07-31T12:38:29;100720.69;;;20.21;90.54
73748;BME280;62056;52.130;5.428;2023-07-31T12:40:57;100718.34;;;20.20;90.19
73748;BME280;62056;52.130;5.428;2023-07-31T12:43:24;100720.94;;;20.16;90.31
73748;BME280;62056;52.130;5.428;2023-07-31T12:45:51;100727.28;;;20.24;90.48
73748;BME280;62056;52.130;5.428;2023-07-31T12:48:18;100723.03;;;20.23;90.08
73748;BME280;62056;52.130;5.428;2023-07-31T12:50:44;100722.75;;;20.28;90.39
73748;BME280;62056;52.130;5.428;2023-07-31T12:53:15;100725.53;;;20.32;90.19
73748;BME280;62056;52.130;5.428;2023-07-31T12:55:41;100720.56;;;20.34;89.81
73748;BME280;62056;52.130;5.428;2023-07-31T12:58:08;100717.56;;;20.39;90.09
73748;BME280;62056;52.130;5.428;2023-07-31T13:00:35;100709.47;;;20.39;89.48
73748;BME280;62056;52.130;5.428;2023-07-31T13:03:02;100709.25;;;20.48;90.04
73748;BME280;62056;52.130;5.428;2023-07-31T13:05:30;100701.28;;;20.55;90.23
73748;BME280;62056;52.130;5.428;2023-07-31T13:07:57;100701.22;;;20.51;89.47